CheckWX is a tool to help pilots better visualize weather data.  It is not intended as a substitute for an official pre-flight weather briefing.

12:59:13 UTC

KPTW METAR
Heritage Field Airport
Pottstown, Pennsylvania, USA
Current

1 hour ago

KPTW 051154Z AUTO 00000KT 8SM OVC065 10/07 A3008 RMK AO2 SLP183 T01000067 10100 20078 53013
Observed
Apr-5 @ 11:54 UTC
Visibility
Flight Rules
VFR
Cloud Levels
  • Overcast at 6,500' AGL
Temperature
10°C / 50°F
Dewpoint
C / 45°F
Humidity
82%
Altimeter
30.08" Hg
Pressure
1018.62 hPa
Previous

2 hours ago

KPTW 051054Z AUTO 00000KT 7SM OVC060 09/07 A3006 RMK AO2 SLP176 T00940067
Observed
Apr-5 @ 10:54 UTC
Visibility
Flight Rules
VFR
Cloud Levels
  • Overcast at 6,000' AGL
Temperature
C / 48°F
Dewpoint
C / 45°F
Humidity
87%
Altimeter
30.06" Hg
Pressure
1017.92 hPa
Previous

3 hours ago

KPTW 050954Z AUTO 00000KT 9SM OVC060 09/07 A3004 RMK AO2 SLP172 T00940067
Observed
Apr-5 @ 09:54 UTC
Visibility
Flight Rules
VFR
Cloud Levels
  • Overcast at 6,000' AGL
Temperature
C / 48°F
Dewpoint
C / 45°F
Humidity
87%
Altimeter
30.04" Hg
Pressure
1017.32 hPa